sensor_id;sensor_type;location;lat;lon;timestamp;temperature;humidity
12907;DHT22;6521;50.498;8.474;2023-02-28T00:01:27;-0.45;80.58
12907;DHT22;6521;50.498;8.474;2023-02-28T00:03:58;-0.42;80.56
12907;DHT22;6521;50.498;8.474;2023-02-28T00:06:28;-0.44;80.56
12907;DHT22;6521;50.498;8.474;2023-02-28T00:08:59;-0.47;80.37
12907;DHT22;6521;50.498;8.474;2023-02-28T00:11:30;-0.50;80.43
12907;DHT22;6521;50.498;8.474;2023-02-28T00:14:01;-0.48;80.50
12907;DHT22;6521;50.498;8.474;2023-02-28T00:16:32;-0.45;80.54
12907;DHT22;6521;50.498;8.474;2023-02-28T00:19:02;-0.44;80.52
12907;DHT22;6521;50.498;8.474;2023-02-28T00:21:33;-0.42;80.55
12907;DHT22;6521;50.498;8.474;2023-02-28T00:24:04;-0.44;80.36
12907;DHT22;6521;50.498;8.474;2023-02-28T00:26:35;-0.42;80.35
12907;DHT22;6521;50.498;8.474;2023-02-28T00:29:06;-0.42;80.37
12907;DHT22;6521;50.498;8.474;2023-02-28T00:31:36;-0.41;80.34
12907;DHT22;6521;50.498;8.474;2023-02-28T00:34:08;-0.45;80.08
12907;DHT22;6521;50.498;8.474;2023-02-28T00:36:39;-0.45;80.23
12907;DHT22;6521;50.498;8.474;2023-02-28T00:39:11;-0.50;80.27
12907;DHT22;6521;50.498;8.474;2023-02-28T00:41:42;-0.51;80.21
12907;DHT22;6521;50.498;8.474;2023-02-28T00:44:13;-0.56;80.14
12907;DHT22;6521;50.498;8.474;2023-02-28T00:46:43;-0.60;80.36
12907;DHT22;6521;50.498;8.474;2023-02-28T00:49:14;-0.65;80.43
12907;DHT22;6521;50.498;8.474;2023-02-28T00:51:46;-0.65;80.51
12907;DHT22;6521;50.498;8.474;2023-02-28T00:54:17;-0.68;80.51
12907;DHT22;6521;50.498;8.474;2023-02-28T00:56:51;-0.71;80.57
12907;DHT22;6521;50.498;8.474;2023-02-28T00:59:22;-0.72;80.53
12907;DHT22;6521;50.498;8.474;2023-02-28T01:01:52;-0.74;80.46
12907;DHT22;6521;50.498;8.474;2023-02-28T01:04:23;-0.78;80.42
12907;DHT22;6521;50.498;8.474;2023-02-28T01:06:54;-0.82;80.41
12907;DHT22;6521;50.498;8.474;2023-02-28T01:09:25;-0.89;80.57
12907;DHT22;6521;50.498;8.474;2023-02-28T01:11:55;-0.92;80.57
12907;DHT22;6521;50.498;8.474;2023-02-28T01:14:26;-0.96;80.50
12907;DHT22;6521;50.498;8.474;2023-02-28T01:16:58;-1.00;80.72
12907;DHT22;6521;50.498;8.474;2023-02-28T01:19:29;-1.05;80.69
12907;DHT22;6521;50.498;8.474;2023-02-28T01:22:01;-1.10;80.68
12907;DHT22;6521;50.498;8.474;2023-02-28T01:24:32;-1.13;80.63
12907;DHT22;6521;50.498;8.474;2023-02-28T01:27:03;-1.16;80.71
12907;DHT22;6521;50.498;8.474;2023-02-28T01:29:34;-1.17;80.75
12907;DHT22;6521;50.498;8.474;2023-02-28T01:32:05;-1.21;80.78
12907;DHT22;6521;50.498;8.474;2023-02-28T01:34:36;-1.23;80.82
12907;DHT22;6521;50.498;8.474;2023-02-28T01:37:08;-1.25;80.93
12907;DHT22;6521;50.498;8.474;2023-02-28T01:39:39;-1.27;80.72
12907;DHT22;6521;50.498;8.474;2023-02-28T01:42:12;-1.33;80.91
12907;DHT22;6521;50.498;8.474;2023-02-28T01:47:36;-1.37;81.05
12907;DHT22;6521;50.498;8.474;2023-02-28T01:50:12;-1.40;81.07
12907;DHT22;6521;50.498;8.474;2023-02-28T01:52:46;-1.43;81.10
12907;DHT22;6521;50.498;8.474;2023-02-28T01:55:19;-1.46;81.19
12907;DHT22;6521;50.498;8.474;2023-02-28T01:57:52;-1.46;81.51
12907;DHT22;6521;50.498;8.474;2023-02-28T02:00:26;-1.46;81.40
12907;DHT22;6521;50.498;8.474;2023-02-28T02:03:00;-1.48;81.44
12907;DHT22;6521;50.498;8.474;2023-02-28T02:05:31;-1.53;81.54
12907;DHT22;6521;50.498;8.474;2023-02-28T02:08:05;-1.53;81.63
12907;DHT22;6521;50.498;8.474;2023-02-28T02:10:48;-1.56;81.72
12907;DHT22;6521;50.498;8.474;2023-02-28T02:25:48;-1.61;82.10
12907;DHT22;6521;50.498;8.474;2023-02-28T02:28:36;-1.64;82.34
12907;DHT22;6521;50.498;8.474;2023-02-28T02:34:26;-1.64;82.18
12907;DHT22;6521;50.498;8.474;2023-02-28T02:39:55;-1.66;82.13
12907;DHT22;6521;50.498;8.474;2023-02-28T02:42:36;-1.67;82.16
12907;DHT22;6521;50.498;8.474;2023-02-28T02:45:13;-1.68;82.22
12907;DHT22;6521;50.498;8.474;2023-02-28T02:47:45;-1.68;82.17
12907;DHT22;6521;50.498;8.474;2023-02-28T02:50:30;-1.66;82.08
12907;DHT22;6521;50.498;8.474;2023-02-28T02:53:04;-1.66;81.99
12907;DHT22;6521;50.498;8.474;2023-02-28T02:55:41;-1.68;81.95
12907;DHT22;6521;50.498;8.474;2023-02-28T02:58:16;-1.67;81.97
12907;DHT22;6521;50.498;8.474;2023-02-28T03:00:53;-1.68;81.90
12907;DHT22;6521;50.498;8.474;2023-02-28T03:03:26;-1.70;81.82
12907;DHT22;6521;50.498;8.474;2023-02-28T03:06:01;-1.68;81.92
12907;DHT22;6521;50.498;8.474;2023-02-28T03:08:36;-1.70;81.73
12907;DHT22;6521;50.498;8.474;2023-02-28T03:11:12;-1.74;81.71
12907;DHT22;6521;50.498;8.474;2023-02-28T03:17:06;-1.75;81.41
12907;DHT22;6521;50.498;8.474;2023-02-28T03:20:23;-1.81;81.43
12907;DHT22;6521;50.498;8.474;2023-02-28T03:23:03;-1.84;81.37
12907;DHT22;6521;50.498;8.474;2023-02-28T03:28:31;-1.88;81.19
12907;DHT22;6521;50.498;8.474;2023-02-28T03:33:51;-1.92;81.39
12907;DHT22;6521;50.498;8.474;2023-02-28T03:36:29;-1.91;81.42
12907;DHT22;6521;50.498;8.474;2023-02-28T03:39:05;-1.92;81.40
12907;DHT22;6521;50.498;8.474;2023-02-28T03:41:43;-1.96;81.34
12907;DHT22;6521;50.498;8.474;2023-02-28T03:44:23;-2.01;81.45
12907;DHT22;6521;50.498;8.474;2023-02-28T03:49:59;-2.08;81.49
12907;DHT22;6521;50.498;8.474;2023-02-28T03:52:34;-2.02;81.54
12907;DHT22;6521;50.498;8.474;2023-02-28T03:55:10;-2.05;81.48
12907;DHT22;6521;50.498;8.474;2023-02-28T03:58:04;-2.03;81.48
12907;DHT22;6521;50.498;8.474;2023-02-28T04:00:40;-2.06;81.46
12907;DHT22;6521;50.498;8.474;2023-02-28T04:03:16;-2.08;81.42
12907;DHT22;6521;50.498;8.474;2023-02-28T04:05:53;-2.09;81.56
12907;DHT22;6521;50.498;8.474;2023-02-28T04:08:24;-2.12;81.64
12907;DHT22;6521;50.498;8.474;2023-02-28T04:11:12;-2.15;81.63
12907;DHT22;6521;50.498;8.474;2023-02-28T04:13:47;-2.15;81.62
12907;DHT22;6521;50.498;8.474;2023-02-28T04:16:18;-2.19;81.79
12907;DHT22;6521;50.498;8.474;2023-02-28T04:18:49;-2.19;81.80
12907;DHT22;6521;50.498;8.474;2023-02-28T04:21:20;-2.19;81.84
12907;DHT22;6521;50.498;8.474;2023-02-28T04:23:51;-2.21;81.90
12907;DHT22;6521;50.498;8.474;2023-02-28T04:26:21;-2.23;81.89
12907;DHT22;6521;50.498;8.474;2023-02-28T04:28:52;-2.22;81.94
12907;DHT22;6521;50.498;8.474;2023-02-28T04:31:23;-2.22;82.05
12907;DHT22;6521;50.498;8.474;2023-02-28T04:33:54;-2.26;82.01
12907;DHT22;6521;50.498;8.474;2023-02-28T04:36:25;-2.28;82.29
12907;DHT22;6521;50.498;8.474;2023-02-28T04:38:56;-2.29;82.13
12907;DHT22;6521;50.498;8.474;2023-02-28T04:41:26;-2.29;82.19
12907;DHT22;6521;50.498;8.474;2023-02-28T04:43:57;-2.30;82.23
12907;DHT22;6521;50.498;8.474;2023-02-28T04:46:28;-2.33;82.13
12907;DHT22;6521;50.498;8.474;2023-02-28T04:48:59;-2.35;82.15
12907;DHT22;6521;50.498;8.474;2023-02-28T04:51:29;-2.39;82.28
12907;DHT22;6521;50.498;8.474;2023-02-28T04:54:00;-2.40;82.35
12907;DHT22;6521;50.498;8.474;2023-02-28T04:56:31;-2.36;82.23
12907;DHT22;6521;50.498;8.474;2023-02-28T04:59:02;-2.39;82.46
12907;DHT22;6521;50.498;8.474;2023-02-28T05:01:33;-2.36;82.37
12907;DHT22;6521;50.498;8.474;2023-02-28T05:04:05;-2.36;82.46
12907;DHT22;6521;50.498;8.474;2023-02-28T05:06:36;-2.39;82.31
12907;DHT22;6521;50.498;8.474;2023-02-28T05:09:07;-2.39;82.39
12907;DHT22;6521;50.498;8.474;2023-02-28T05:11:38;-2.39;82.44
12907;DHT22;6521;50.498;8.474;2023-02-28T05:14:12;-2.40;82.35
12907;DHT22;6521;50.498;8.474;2023-02-28T05:16:43;-2.43;82.51
12907;DHT22;6521;50.498;8.474;2023-02-28T05:19:14;-2.43;82.50
12907;DHT22;6521;50.498;8.474;2023-02-28T05:21:53;-2.43;82.56
12907;DHT22;6521;50.498;8.474;2023-02-28T05:24:24;-2.45;82.44
12907;DHT22;6521;50.498;8.474;2023-02-28T05:26:55;-2.45;82.44
12907;DHT22;6521;50.498;8.474;2023-02-28T05:29:26;-2.43;82.43
12907;DHT22;6521;50.498;8.474;2023-02-28T05:31:56;-2.43;82.35
12907;DHT22;6521;50.498;8.474;2023-02-28T05:34:27;-2.43;82.31
12907;DHT22;6521;50.498;8.474;2023-02-28T05:36:58;-2.42;82.28
12907;DHT22;6521;50.498;8.474;2023-02-28T05:39:28;-2.40;82.21
12907;DHT22;6521;50.498;8.474;2023-02-28T05:41:59;-2.40;82.08
12907;DHT22;6521;50.498;8.474;2023-02-28T05:44:30;-2.39;82.15
12907;DHT22;6521;50.498;8.474;2023-02-28T05:47:01;-2.40;81.93
12907;DHT22;6521;50.498;8.474;2023-02-28T05:49:32;-2.40;81.91
12907;DHT22;6521;50.498;8.474;2023-02-28T05:52:04;-2.42;81.88
12907;DHT22;6521;50.498;8.474;2023-02-28T05:54:34;-2.43;81.97
12907;DHT22;6521;50.498;8.474;2023-02-28T05:57:05;-2.43;81.84
12907;DHT22;6521;50.498;8.474;2023-02-28T05:59:36;-2.40;82.02
12907;DHT22;6521;50.498;8.474;2023-02-28T06:02:15;-2.37;81.97
12907;DHT22;6521;50.498;8.474;2023-02-28T06:04:46;-2.35;81.96
12907;DHT22;6521;50.498;8.474;2023-02-28T06:07:17;-2.33;81.88
12907;DHT22;6521;50.498;8.474;2023-02-28T06:09:48;-2.35;81.73
12907;DHT22;6521;50.498;8.474;2023-02-28T06:12:18;-2.35;81.81
12907;DHT22;6521;50.498;8.474;2023-02-28T06:14:49;-2.29;81.68
12907;DHT22;6521;50.498;8.474;2023-02-28T06:17:20;-2.30;81.46
12907;DHT22;6521;50.498;8.474;2023-02-28T06:19:51;-2.28;81.60
12907;DHT22;6521;50.498;8.474;2023-02-28T06:22:22;-2.21;81.46
12907;DHT22;6521;50.498;8.474;2023-02-28T06:24:52;-2.19;81.37
12907;DHT22;6521;50.498;8.474;2023-02-28T06:27:23;-2.13;81.34
12907;DHT22;6521;50.498;8.474;2023-02-28T06:29:54;-2.09;81.28
12907;DHT22;6521;50.498;8.474;2023-02-28T06:32:26;-2.02;81.10
12907;DHT22;6521;50.498;8.474;2023-02-28T06:34:56;-1.91;81.02
12907;DHT22;6521;50.498;8.474;2023-02-28T06:37:28;-1.85;81.07
12907;DHT22;6521;50.498;8.474;2023-02-28T06:40:00;-1.82;81.02
12907;DHT22;6521;50.498;8.474;2023-02-28T06:42:31;-1.78;80.79
12907;DHT22;6521;50.498;8.474;2023-02-28T06:45:03;-1.71;80.78
12907;DHT22;6521;50.498;8.474;2023-02-28T06:47:40;-1.66;80.40
12907;DHT22;6521;50.498;8.474;2023-02-28T06:50:12;-1.61;80.02
12907;DHT22;6521;50.498;8.474;2023-02-28T06:52:43;-1.60;79.33
12907;DHT22;6521;50.498;8.474;2023-02-28T06:55:14;-1.53;79.28
12907;DHT22;6521;50.498;8.474;2023-02-28T06:57:44;-1.48;78.84
12907;DHT22;6521;50.498;8.474;2023-02-28T07:00:16;-1.40;78.69
12907;DHT22;6521;50.498;8.474;2023-02-28T07:02:47;-1.37;78.20
12907;DHT22;6521;50.498;8.474;2023-02-28T07:05:18;-1.33;78.33
12907;DHT22;6521;50.498;8.474;2023-02-28T07:07:48;-1.29;78.23
12907;DHT22;6521;50.498;8.474;2023-02-28T07:10:19;-1.27;78.19
12907;DHT22;6521;50.498;8.474;2023-02-28T07:12:50;-1.21;77.73
12907;DHT22;6521;50.498;8.474;2023-02-28T07:15:21;-1.17;77.71
12907;DHT22;6521;50.498;8.474;2023-02-28T07:17:52;-1.13;77.14
12907;DHT22;6521;50.498;8.474;2023-02-28T07:20:24;-1.09;76.35
12907;DHT22;6521;50.498;8.474;2023-02-28T07:22:54;-1.03;75.77
12907;DHT22;6521;50.498;8.474;2023-02-28T07:25:27;-1.00;75.89
12907;DHT22;6521;50.498;8.474;2023-02-28T07:27:58;-1.03;75.56
12907;DHT22;6521;50.498;8.474;2023-02-28T07:30:31;-1.08;75.51
12907;DHT22;6521;50.498;8.474;2023-02-28T07:33:02;-1.06;75.34
12907;DHT22;6521;50.498;8.474;2023-02-28T07:35:34;-1.09;75.12
12907;DHT22;6521;50.498;8.474;2023-02-28T07:38:05;-1.10;75.10
12907;DHT22;6521;50.498;8.474;2023-02-28T07:40:37;-1.06;74.70
12907;DHT22;6521;50.498;8.474;2023-02-28T07:43:08;-1.02;74.92
12907;DHT22;6521;50.498;8.474;2023-02-28T07:45:39;-1.00;74.75
12907;DHT22;6521;50.498;8.474;2023-02-28T07:48:10;-0.99;74.10
12907;DHT22;6521;50.498;8.474;2023-02-28T07:50:41;-0.91;74.14
12907;DHT22;6521;50.498;8.474;2023-02-28T07:53:11;-0.85;74.63
12907;DHT22;6521;50.498;8.474;2023-02-28T07:55:42;-0.82;73.88
12907;DHT22;6521;50.498;8.474;2023-02-28T07:58:13;-0.75;73.33
12907;DHT22;6521;50.498;8.474;2023-02-28T08:00:44;-0.69;72.52
12907;DHT22;6521;50.498;8.474;2023-02-28T08:03:17;-0.65;72.21
12907;DHT22;6521;50.498;8.474;2023-02-28T08:05:48;-0.60;72.76
12907;DHT22;6521;50.498;8.474;2023-02-28T08:08:19;-0.54;71.93
12907;DHT22;6521;50.498;8.474;2023-02-28T08:10:50;-0.53;72.11
12907;DHT22;6521;50.498;8.474;2023-02-28T08:13:21;-0.50;70.72
12907;DHT22;6521;50.498;8.474;2023-02-28T08:15:52;-0.44;70.53
12907;DHT22;6521;50.498;8.474;2023-02-28T08:18:23;-0.38;71.27
12907;DHT22;6521;50.498;8.474;2023-02-28T08:20:54;-0.33;69.72
12907;DHT22;6521;50.498;8.474;2023-02-28T08:23:24;-0.27;70.34
12907;DHT22;6521;50.498;8.474;2023-02-28T08:25:56;-0.23;69.18
12907;DHT22;6521;50.498;8.474;2023-02-28T08:28:26;-0.17;69.32
12907;DHT22;6521;50.498;8.474;2023-02-28T08:30:57;-0.09;68.78
12907;DHT22;6521;50.498;8.474;2023-02-28T08:33:28;-0.09;69.08
12907;DHT22;6521;50.498;8.474;2023-02-28T08:35:59;-0.10;67.98
12907;DHT22;6521;50.498;8.474;2023-02-28T08:38:30;-0.06;67.72
12907;DHT22;6521;50.498;8.474;2023-02-28T08:41:04;0.01;67.94
12907;DHT22;6521;50.498;8.474;2023-02-28T08:43:36;0.08;67.25
12907;DHT22;6521;50.498;8.474;2023-02-28T08:46:11;0.11;66.58
12907;DHT22;6521;50.498;8.474;2023-02-28T08:48:42;0.17;67.14
12907;DHT22;6521;50.498;8.474;2023-02-28T08:51:18;0.25;66.20
12907;DHT22;6521;50.498;8.474;2023-02-28T08:53:59;0.28;65.00
12907;DHT22;6521;50.498;8.474;2023-02-28T08:56:30;0.32;65.51
12907;DHT22;6521;50.498;8.474;2023-02-28T08:59:01;0.38;64.97
12907;DHT22;6521;50.498;8.474;2023-02-28T09:01:31;0.41;64.25
12907;DHT22;6521;50.498;8.474;2023-02-28T09:04:02;0.51;64.09
12907;DHT22;6521;50.498;8.474;2023-02-28T09:06:33;0.55;62.69
12907;DHT22;6521;50.498;8.474;2023-02-28T09:09:04;0.59;61.94
12907;DHT22;6521;50.498;8.474;2023-02-28T09:11:36;0.69;61.42
12907;DHT22;6521;50.498;8.474;2023-02-28T09:14:08;0.79;60.19
12907;DHT22;6521;50.498;8.474;2023-02-28T09:16:39;0.80;60.81
12907;DHT22;6521;50.498;8.474;2023-02-28T09:19:11;0.91;59.33
12907;DHT22;6521;50.498;8.474;2023-02-28T09:21:45;1.04;59.56
12907;DHT22;6521;50.498;8.474;2023-02-28T09:24:15;1.23;59.30
12907;DHT22;6521;50.498;8.474;2023-02-28T09:26:46;1.41;57.98
12907;DHT22;6521;50.498;8.474;2023-02-28T09:29:17;1.55;57.83
12907;DHT22;6521;50.498;8.474;2023-02-28T09:31:48;1.70;56.62
12907;DHT22;6521;50.498;8.474;2023-02-28T09:34:19;1.85;56.64
12907;DHT22;6521;50.498;8.474;2023-02-28T09:36:50;1.99;56.95
12907;DHT22;6521;50.498;8.474;2023-02-28T09:39:25;2.20;54.12
12907;DHT22;6521;50.498;8.474;2023-02-28T09:41:57;2.40;55.34
12907;DHT22;6521;50.498;8.474;2023-02-28T09:44:43;2.66;55.47
12907;DHT22;6521;50.498;8.474;2023-02-28T09:47:30;2.92;52.50
12907;DHT22;6521;50.498;8.474;2023-02-28T09:50:23;3.13;51.82
12907;DHT22;6521;50.498;8.474;2023-02-28T09:53:03;3.41;53.29
12907;DHT22;6521;50.498;8.474;2023-02-28T09:55:44;3.73;51.55
12907;DHT22;6521;50.498;8.474;2023-02-28T09:58:28;3.91;50.30
12907;DHT22;6521;50.498;8.474;2023-02-28T10:03:40;4.20;49.01
12907;DHT22;6521;50.498;8.474;2023-02-28T10:06:20;4.26;48.00
12907;DHT22;6521;50.498;8.474;2023-02-28T10:11:35;4.32;47.43
12907;DHT22;6521;50.498;8.474;2023-02-28T10:14:15;4.28;47.71
12907;DHT22;6521;50.498;8.474;2023-02-28T10:17:09;4.37;46.34
12907;DHT22;6521;50.498;8.474;2023-02-28T10:24:58;4.42;47.28
12907;DHT22;6521;50.498;8.474;2023-02-28T10:27:33;4.30;46.67
12907;DHT22;6521;50.498;8.474;2023-02-28T10:30:05;4.18;48.87
12907;DHT22;6521;50.498;8.474;2023-02-28T10:32:37;4.60;47.05
12907;DHT22;6521;50.498;8.474;2023-02-28T10:35:19;4.81;45.23
12907;DHT22;6521;50.498;8.474;2023-02-28T10:37:59;4.99;44.66
12907;DHT22;6521;50.498;8.474;2023-02-28T10:40:34;5.34;43.75
12907;DHT22;6521;50.498;8.474;2023-02-28T10:48:45;4.39;45.93
12907;DHT22;6521;50.498;8.474;2023-02-28T10:51:22;4.35;46.91
12907;DHT22;6521;50.498;8.474;2023-02-28T10:53:54;4.15;45.82
12907;DHT22;6521;50.498;8.474;2023-02-28T10:56:26;4.01;48.30
12907;DHT22;6521;50.498;8.474;2023-02-28T10:59:30;4.16;47.78
12907;DHT22;6521;50.498;8.474;2023-02-28T11:02:01;4.76;46.21
12907;DHT22;6521;50.498;8.474;2023-02-28T11:04:34;5.43;46.41
12907;DHT22;6521;50.498;8.474;2023-02-28T11:07:21;5.74;44.88
12907;DHT22;6521;50.498;8.474;2023-02-28T11:09:55;6.00;41.98
12907;DHT22;6521;50.498;8.474;2023-02-28T11:12:38;6.28;41.35
12907;DHT22;6521;50.498;8.474;2023-02-28T11:15:28;6.66;42.12
12907;DHT22;6521;50.498;8.474;2023-02-28T11:18:02;6.52;41.14
12907;DHT22;6521;50.498;8.474;2023-02-28T11:20:36;6.39;42.28
12907;DHT22;6521;50.498;8.474;2023-02-28T11:23:12;5.95;42.97
12907;DHT22;6521;50.498;8.474;2023-02-28T11:25:49;5.77;40.57
12907;DHT22;6521;50.498;8.474;2023-02-28T11:28:34;5.35;41.80
12907;DHT22;6521;50.498;8.474;2023-02-28T11:33:52;5.04;43.51
12907;DHT22;6521;50.498;8.474;2023-02-28T11:36:29;4.47;43.28
12907;DHT22;6521;50.498;8.474;2023-02-28T11:39:10;4.26;46.54
12907;DHT22;6521;50.498;8.474;2023-02-28T11:44:39;4.08;47.51
12907;DHT22;6521;50.498;8.474;2023-02-28T11:47:20;4.25;48.16
12907;DHT22;6521;50.498;8.474;2023-02-28T11:55:35;4.95;45.61
12907;DHT22;6521;50.498;8.474;2023-02-28T11:58:47;4.67;47.09
12907;DHT22;6521;50.498;8.474;2023-02-28T12:07:02;4.28;47.22
12907;DHT22;6521;50.498;8.474;2023-02-28T12:09:56;4.46;49.12
12907;DHT22;6521;50.498;8.474;2023-02-28T12:15:36;5.69;45.53
12907;DHT22;6521;50.498;8.474;2023-02-28T12:18:20;6.07;46.20
12907;DHT22;6521;50.498;8.474;2023-02-28T12:20:59;6.57;44.61
12907;DHT22;6521;50.498;8.474;2023-02-28T12:23:55;6.76;43.32
12907;DHT22;6521;50.498;8.474;2023-02-28T12:26:44;6.96;43.65
12907;DHT22;6521;50.498;8.474;2023-02-28T12:29:23;7.30;43.90
12907;DHT22;6521;50.498;8.474;2023-02-28T12:32:04;7.51;42.57
12907;DHT22;6521;50.498;8.474;2023-02-28T12:34:44;7.54;41.35
12907;DHT22;6521;50.498;8.474;2023-02-28T12:37:25;7.45;41.69
12907;DHT22;6521;50.498;8.474;2023-02-28T12:40:05;7.30;40.62
12907;DHT22;6521;50.498;8.474;2023-02-28T12:42:40;6.79;42.15
12907;DHT22;6521;50.498;8.474;2023-02-28T12:45:27;6.49;43.63
12907;DHT22;6521;50.498;8.474;2023-02-28T12:48:04;6.53;44.57
12907;DHT22;6521;50.498;8.474;2023-02-28T12:50:37;6.45;44.41
12907;DHT22;6521;50.498;8.474;2023-02-28T12:53:21;6.62;43.08
12907;DHT22;6521;50.498;8.474;2023-02-28T12:56:15;6.75;43.82
12907;DHT22;6521;50.498;8.474;2023-02-28T12:58:51;6.71;43.11
12907;DHT22;6521;50.498;8.474;2023-02-28T13:10:00;6.31;45.59
12907;DHT22;6521;50.498;8.474;2023-02-28T13:12:33;6.56;45.69
12907;DHT22;6521;50.498;8.474;2023-02-28T13:15:15;6.80;45.46
12907;DHT22;6521;50.498;8.474;2023-02-28T13:17:56;7.01;43.63
12907;DHT22;6521;50.498;8.474;2023-02-28T13:20:36;7.15;42.34
12907;DHT22;6521;50.498;8.474;2023-02-28T13:35:11;7.50;43.72
12907;DHT22;6521;50.498;8.474;2023-02-28T13:37:43;7.72;43.29
12907;DHT22;6521;50.498;8.474;2023-02-28T13:42:53;7.25;42.97
12907;DHT22;6521;50.498;8.474;2023-02-28T13:45:26;7.30;43.39
12907;DHT22;6521;50.498;8.474;2023-02-28T13:48:03;7.32;42.67
12907;DHT22;6521;50.498;8.474;2023-02-28T13:50:35;7.18;42.35
12907;DHT22;6521;50.498;8.474;2023-02-28T13:58:43;7.36;42.23
12907;DHT22;6521;50.498;8.474;2023-02-28T14:06:54;7.42;41.48
12907;DHT22;6521;50.498;8.474;2023-02-28T14:09:29;7.54;42.38
12907;DHT22;6521;50.498;8.474;2023-02-28T14:18:36;7.61;43.21
12907;DHT22;6521;50.498;8.474;2023-02-28T14:21:26;7.63;42.78
12907;DHT22;6521;50.498;8.474;2023-02-28T14:24:22;7.62;42.16
12907;DHT22;6521;50.498;8.474;2023-02-28T14:27:26;7.38;42.91
12907;DHT22;6521;50.498;8.474;2023-02-28T14:33:20;7.41;41.94
12907;DHT22;6521;50.498;8.474;2023-02-28T14:36:01;7.34;42.33
12907;DHT22;6521;50.498;8.474;2023-02-28T14:38:42;7.11;42.18
12907;DHT22;6521;50.498;8.474;2023-02-28T14:41:26;7.10;44.82
12907;DHT22;6521;50.498;8.474;2023-02-28T14:44:00;7.20;43.37
12907;DHT22;6521;50.498;8.474;2023-02-28T14:46:39;7.28;44.18
12907;DHT22;6521;50.498;8.474;2023-02-28T14:49:19;7.41;44.71
12907;DHT22;6521;50.498;8.474;2023-02-28T14:51:50;7.48;42.90
12907;DHT22;6521;50.498;8.474;2023-02-28T14:54:32;7.51;43.97
12907;DHT22;6521;50.498;8.474;2023-02-28T14:57:03;7.55;43.46
12907;DHT22;6521;50.498;8.474;2023-02-28T14:59:35;7.56;43.17
12907;DHT22;6521;50.498;8.474;2023-02-28T15:02:34;7.45;43.44
12907;DHT22;6521;50.498;8.474;2023-02-28T15:07:59;7.28;43.34
12907;DHT22;6521;50.498;8.474;2023-02-28T15:10:30;7.18;42.92
12907;DHT22;6521;50.498;8.474;2023-02-28T15:13:05;6.84;42.11
12907;DHT22;6521;50.498;8.474;2023-02-28T15:15:47;6.53;44.39
12907;DHT22;6521;50.498;8.474;2023-02-28T15:21:19;6.57;45.90
12907;DHT22;6521;50.498;8.474;2023-02-28T15:24:03;6.52;44.84
12907;DHT22;6521;50.498;8.474;2023-02-28T15:26:40;6.34;43.71
12907;DHT22;6521;50.498;8.474;2023-02-28T15:29:15;6.25;43.67
12907;DHT22;6521;50.498;8.474;2023-02-28T15:31:53;5.84;43.56
12907;DHT22;6521;50.498;8.474;2023-02-28T15:34:41;5.78;45.37
12907;DHT22;6521;50.498;8.474;2023-02-28T15:37:48;5.76;46.08
12907;DHT22;6521;50.498;8.474;2023-02-28T15:40:31;5.70;45.91
12907;DHT22;6521;50.498;8.474;2023-02-28T15:45:48;5.67;46.79
12907;DHT22;6521;50.498;8.474;2023-02-28T15:48:23;5.47;46.64
12907;DHT22;6521;50.498;8.474;2023-02-28T15:50:56;5.42;48.09
12907;DHT22;6521;50.498;8.474;2023-02-28T15:53:34;5.21;47.13
12907;DHT22;6521;50.498;8.474;2023-02-28T15:56:21;5.05;47.30
12907;DHT22;6521;50.498;8.474;2023-02-28T15:58:54;4.71;47.53
12907;DHT22;6521;50.498;8.474;2023-02-28T16:01:28;4.54;48.70
12907;DHT22;6521;50.498;8.474;2023-02-28T16:04:05;4.35;49.25
12907;DHT22;6521;50.498;8.474;2023-02-28T16:09:29;4.02;51.06
12907;DHT22;6521;50.498;8.474;2023-02-28T16:12:02;3.88;51.34
12907;DHT22;6521;50.498;8.474;2023-02-28T16:14:35;3.79;51.55
12907;DHT22;6521;50.498;8.474;2023-02-28T16:17:08;3.70;51.48
12907;DHT22;6521;50.498;8.474;2023-02-28T16:19:44;3.60;51.66
12907;DHT22;6521;50.498;8.474;2023-02-28T16:22:15;3.57;52.50
12907;DHT22;6521;50.498;8.474;2023-02-28T16:24:45;3.47;52.87
12907;DHT22;6521;50.498;8.474;2023-02-28T16:27:24;3.43;53.61
12907;DHT22;6521;50.498;8.474;2023-02-28T16:29:57;3.38;54.98
12907;DHT22;6521;50.498;8.474;2023-02-28T16:32:28;3.29;54.12
12907;DHT22;6521;50.498;8.474;2023-02-28T16:34:59;3.22;54.44
12907;DHT22;6521;50.498;8.474;2023-02-28T16:37:30;3.16;54.91
12907;DHT22;6521;50.498;8.474;2023-02-28T16:40:00;3.06;54.75
12907;DHT22;6521;50.498;8.474;2023-02-28T16:42:32;3.00;55.52
12907;DHT22;6521;50.498;8.474;2023-02-28T16:45:03;2.93;55.66
12907;DHT22;6521;50.498;8.474;2023-02-28T16:47:34;2.89;56.36
12907;DHT22;6521;50.498;8.474;2023-02-28T16:50:13;2.78;56.05
12907;DHT22;6521;50.498;8.474;2023-02-28T16:52:45;2.69;55.52
12907;DHT22;6521;50.498;8.474;2023-02-28T16:55:15;2.62;55.62
12907;DHT22;6521;50.498;8.474;2023-02-28T16:57:50;2.54;55.88
12907;DHT22;6521;50.498;8.474;2023-02-28T17:00:23;2.47;56.78
12907;DHT22;6521;50.498;8.474;2023-02-28T17:02:54;2.38;56.63
12907;DHT22;6521;50.498;8.474;2023-02-28T17:05:26;2.34;56.96
12907;DHT22;6521;50.498;8.474;2023-02-28T17:07:59;2.21;57.01
12907;DHT22;6521;50.498;8.474;2023-02-28T17:10:30;2.17;57.31
12907;DHT22;6521;50.498;8.474;2023-02-28T17:13:01;2.11;57.08
12907;DHT22;6521;50.498;8.474;2023-02-28T17:15:31;2.05;57.11
12907;DHT22;6521;50.498;8.474;2023-02-28T17:18:03;2.00;57.72
12907;DHT22;6521;50.498;8.474;2023-02-28T17:20:34;1.95;58.27
12907;DHT22;6521;50.498;8.474;2023-02-28T17:23:05;1.86;58.37
12907;DHT22;6521;50.498;8.474;2023-02-28T17:25:36;1.82;58.79
12907;DHT22;6521;50.498;8.474;2023-02-28T17:28:08;1.78;58.83
12907;DHT22;6521;50.498;8.474;2023-02-28T17:30:39;1.73;59.18
12907;DHT22;6521;50.498;8.474;2023-02-28T17:33:17;1.69;59.29
12907;DHT22;6521;50.498;8.474;2023-02-28T17:35:48;1.65;59.02
12907;DHT22;6521;50.498;8.474;2023-02-28T17:38:19;1.61;59.65
12907;DHT22;6521;50.498;8.474;2023-02-28T17:40:50;1.56;59.53
12907;DHT22;6521;50.498;8.474;2023-02-28T17:43:20;1.52;59.67
12907;DHT22;6521;50.498;8.474;2023-02-28T17:45:52;1.45;60.17
12907;DHT22;6521;50.498;8.474;2023-02-28T17:48:24;1.44;59.64
12907;DHT22;6521;50.498;8.474;2023-02-28T17:50:54;1.42;59.66
12907;DHT22;6521;50.498;8.474;2023-02-28T17:53:25;1.44;60.49
12907;DHT22;6521;50.498;8.474;2023-02-28T17:55:57;1.35;60.66
12907;DHT22;6521;50.498;8.474;2023-02-28T17:58:28;1.34;60.57
12907;DHT22;6521;50.498;8.474;2023-02-28T18:01:01;1.37;60.56
12907;DHT22;6521;50.498;8.474;2023-02-28T18:03:32;1.28;60.56
12907;DHT22;6521;50.498;8.474;2023-02-28T18:06:03;1.21;61.19
12907;DHT22;6521;50.498;8.474;2023-02-28T18:08:34;1.19;61.25
12907;DHT22;6521;50.498;8.474;2023-02-28T18:11:05;1.20;61.15
12907;DHT22;6521;50.498;8.474;2023-02-28T18:13:36;1.19;61.05
12907;DHT22;6521;50.498;8.474;2023-02-28T18:16:07;1.17;61.19
12907;DHT22;6521;50.498;8.474;2023-02-28T18:18:40;1.14;61.17
12907;DHT22;6521;50.498;8.474;2023-02-28T18:21:12;1.14;61.16
12907;DHT22;6521;50.498;8.474;2023-02-28T18:23:44;1.08;61.30
12907;DHT22;6521;50.498;8.474;2023-02-28T18:26:18;1.05;61.23
12907;DHT22;6521;50.498;8.474;2023-02-28T18:28:49;1.04;61.81
12907;DHT22;6521;50.498;8.474;2023-02-28T18:31:20;1.05;61.89
12907;DHT22;6521;50.498;8.474;2023-02-28T18:33:51;0.99;62.14
12907;DHT22;6521;50.498;8.474;2023-02-28T18:36:23;0.99;62.40
12907;DHT22;6521;50.498;8.474;2023-02-28T18:38:53;0.96;62.65
12907;DHT22;6521;50.498;8.474;2023-02-28T18:41:24;0.93;62.60
12907;DHT22;6521;50.498;8.474;2023-02-28T18:43:55;0.90;62.57
12907;DHT22;6521;50.498;8.474;2023-02-28T18:46:26;0.87;62.77